Terminal Aerodrome Forecast
Issued by NWS

Home | Current Version | Previous Version | Text Only | Print | Product List | Glossary On
Versions: 1 2 3 4 5 6 7 8 9 10 11 12 13 14 15 16 17 18 19 20 21 22 23 24 25 26 27 28 29 30 31 32 33
674
FTUS43 KPAH 171120
TAFOWB
TAF
KOWB 171120Z 1712/1812 21008KT P6SM FEW100 BKN250
      TEMPO 1712/1713 5SM BR SCT005
     FM171800 22008G18KT P6SM VCSH SCT030 BKN050
      TEMPO 1719/1723 -TSRA BKN025CB
     FM180200 27004KT P6SM SKC=

USA.gov is the U.S. government's official web portal to all federal, state and local government web resources and services.